Terminal Aerodrome Forecast
Issued by NWS

Home | Current Version | Previous Version | Text Only | Print | Product List | Glossary On
Versions: 1 2 3 4 5 6 7 8 9 10 11 12 13 14 15 16 17 18
000
FTUS43 KSGF 181720
TAFBBG
TAF
KBBG 181720Z 1818/1918 23007KT P6SM SKC
     FM190000 17010KT P6SM SKC WS015/25040KT
     FM191500 18012G17KT P6SM FEW250=

USA.gov is the U.S. government's official web portal to all federal, state and local government web resources and services.